Time;durP1;ratioP1;P1;durP2;ratioP2;P2;SDS_P1;SDS_P2;PMS_P1;PMS_P2;Temp;Humidity;BMP_temperature;BMP_pressure;BME280_temperature;BME280_humidity;BME280_pressure;Samples;Min_cycle;Max_cycle;Signal;HPM_P1;HPM_P2
2023/08/29 00:00:03;;;;;;;7.18;2.97;;;14.00;99.90;;;;;;5054967;28;20051;-87
2023/08/29 00:02:31;;;;;;;9.60;2.67;;;13.90;99.90;;;;;;5034969;28;20044;-87
2023/08/29 00:04:58;;;;;;;6.78;2.55;;;13.90;99.90;;;;;;5055166;28;20040;-87
2023/08/29 00:07:24;;;;;;;6.20;2.30;;;13.90;99.90;;;;;;5054608;28;20040;-87
2023/08/29 00:09:52;;;;;;;7.65;3.10;;;13.90;99.90;;;;;;5055123;28;20101;-88
2023/08/29 00:12:18;;;;;;;7.30;2.63;;;13.90;99.90;;;;;;5034828;28;20564;-87
2023/08/29 00:14:44;;;;;;;7.70;2.60;;;14.00;99.90;;;;;;5034403;28;20120;-88
2023/08/29 00:17:09;;;;;;;7.28;2.60;;;13.90;99.90;;;;;;5063272;28;20501;-87
2023/08/29 00:19:35;;;;;;;7.65;2.47;;;13.90;99.90;;;;;;5051580;28;20051;-87
2023/08/29 00:22:01;;;;;;;7.85;2.58;;;13.80;99.90;;;;;;5025697;28;20044;-88
2023/08/29 00:24:28;;;;;;;6.95;2.53;;;13.80;99.90;;;;;;5032669;28;20032;-87
2023/08/29 00:26:53;;;;;;;6.57;2.17;;;13.80;99.90;;;;;;5048716;28;20076;-87
2023/08/29 00:29:19;;;;;;;6.85;2.45;;;13.80;99.90;;;;;;5047934;28;20044;-87
2023/08/29 00:31:45;;;;;;;6.60;2.28;;;13.80;99.90;;;;;;5062638;28;20052;-87
2023/08/29 00:34:10;;;;;;;6.78;2.40;;;13.80;99.90;;;;;;5063654;28;20047;-87
2023/08/29 00:36:36;;;;;;;8.75;2.60;;;13.80;99.90;;;;;;5035069;28;20493;-87
2023/08/29 00:39:03;;;;;;;7.50;2.65;;;13.80;99.90;;;;;;5040610;28;20067;-87
2023/08/29 00:41:30;;;;;;;6.30;2.40;;;13.80;99.90;;;;;;5047036;28;20055;-87
2023/08/29 00:43:56;;;;;;;7.85;2.65;;;13.70;99.90;;;;;;5030183;28;20111;-87
2023/08/29 00:46:23;;;;;;;7.80;2.60;;;13.70;99.90;;;;;;5071196;28;20515;-87
2023/08/29 00:48:49;;;;;;;7.53;2.40;;;13.70;99.90;;;;;;5034511;28;20479;-87
2023/08/29 00:51:17;;;;;;;6.93;2.30;;;13.70;99.90;;;;;;5034561;28;20039;-87
2023/08/29 00:53:43;;;;;;;6.20;2.17;;;13.70;99.90;;;;;;5048277;28;20106;-87
2023/08/29 00:56:09;;;;;;;9.40;2.80;;;13.70;99.90;;;;;;5037714;28;20048;-87
2023/08/29 00:58:36;;;;;;;8.57;2.47;;;13.70;99.90;;;;;;5018270;28;20056;-88
2023/08/29 01:01:02;;;;;;;6.90;2.05;;;13.70;99.90;;;;;;5053405;28;20044;-87
2023/08/29 01:03:28;;;;;;;5.82;1.90;;;13.70;99.90;;;;;;5034485;28;20477;-87
2023/08/29 01:05:54;;;;;;;5.78;2.13;;;13.70;99.90;;;;;;5053032;28;20093;-87
2023/08/29 01:08:20;;;;;;;6.97;2.50;;;13.70;99.90;;;;;;5077455;28;20724;-87
2023/08/29 01:11:09;;;;;;;6.25;2.20;;;13.60;99.90;;;;;;5031963;28;20032;-88
2023/08/29 01:13:41;;;;;;;5.35;2.00;;;13.60;99.90;;;;;;5064765;28;20508;-88
2023/08/29 01:16:10;;;;;;;8.35;2.38;;;13.60;99.90;;;;;;5051219;28;20098;-87
2023/08/29 01:18:38;;;;;;;6.28;2.25;;;13.60;99.90;;;;;;5037720;28;20051;-87
2023/08/29 01:21:39;;;;;;;6.22;2.10;;;13.50;99.90;;;;;;5054621;28;20036;-87
2023/08/29 01:24:13;;;;;;;5.40;2.10;;;13.50;99.90;;;;;;5054377;28;20039;-87
2023/08/29 01:26:40;;;;;;;6.20;2.05;;;13.50;99.90;;;;;;5055700;28;20166;-87
2023/08/29 01:29:06;;;;;;;5.05;2.00;;;13.50;99.90;;;;;;5037999;28;20048;-87
2023/08/29 01:31:34;;;;;;;6.05;1.90;;;13.40;99.90;;;;;;5045723;28;20036;-88
2023/08/29 01:34:00;;;;;;;6.55;2.42;;;13.40;99.90;;;;;;5072983;28;20140;-87
2023/08/29 01:36:40;;;;;;;4.85;1.95;;;13.40;99.90;;;;;;5057830;28;20054;-88
2023/08/29 01:39:05;;;;;;;5.70;2.00;;;13.30;99.90;;;;;;5053350;28;20558;-88
2023/08/29 01:41:31;;;;;;;6.22;2.10;;;13.30;99.90;;;;;;5029283;28;20037;-87
2023/08/29 01:43:57;;;;;;;5.03;1.70;;;13.30;99.90;;;;;;5067267;28;20072;-87
2023/08/29 01:46:23;;;;;;;6.65;2.00;;;13.30;99.90;;;;;;5037346;28;20516;-87
2023/08/29 01:48:49;;;;;;;5.45;1.85;;;13.30;99.90;;;;;;5037464;28;20051;-88
2023/08/29 01:51:15;;;;;;;4.68;1.98;;;13.20;99.90;;;;;;5054281;28;20028;-87
2023/08/29 01:53:42;;;;;;;5.70;2.08;;;13.20;99.90;;;;;;5053395;28;20558;-87
2023/08/29 01:56:10;;;;;;;5.43;2.05;;;13.20;99.90;;;;;;5057496;28;20038;-87
2023/08/29 01:58:38;;;;;;;4.90;1.90;;;13.20;99.90;;;;;;5055958;28;20044;-87
2023/08/29 02:01:04;;;;;;;5.30;1.95;;;13.20;99.90;;;;;;5053784;28;20044;-87
2023/08/29 02:03:29;;;;;;;7.95;1.98;;;13.10;99.90;;;;;;5050682;28;20135;-87
2023/08/29 02:05:55;;;;;;;4.25;1.75;;;13.10;99.90;;;;;;5042294;28;20093;-88
2023/08/29 02:08:21;;;;;;;4.88;1.83;;;13.10;99.90;;;;;;5049386;28;20040;-87
2023/08/29 02:10:47;;;;;;;7.32;2.10;;;13.10;99.90;;;;;;5037083;28;20044;-88
2023/08/29 02:13:12;;;;;;;4.72;1.92;;;13.10;99.90;;;;;;5030851;28;20075;-87
2023/08/29 02:15:38;;;;;;;5.70;2.20;;;13.10;99.90;;;;;;5037116;28;20040;-88
2023/08/29 02:18:04;;;;;;;5.53;2.10;;;13.00;99.90;;;;;;5046302;28;20040;-88
2023/08/29 02:20:30;;;;;;;5.40;2.08;;;13.00;99.90;;;;;;5056631;28;20067;-87
2023/08/29 02:22:55;;;;;;;6.03;2.20;;;13.00;99.90;;;;;;5056916;28;20172;-87
2023/08/29 02:25:21;;;;;;;5.45;2.10;;;13.00;99.90;;;;;;5055374;28;20408;-87
2023/08/29 02:27:47;;;;;;;6.00;2.40;;;13.00;99.90;;;;;;5053698;28;20044;-88
2023/08/29 02:30:13;;;;;;;7.10;2.30;;;12.90;99.90;;;;;;5053951;28;20102;-88
2023/08/29 02:32:39;;;;;;;7.00;2.50;;;13.00;99.90;;;;;;5036607;28;20048;-88
2023/08/29 02:35:06;;;;;;;7.38;2.50;;;13.00;99.90;;;;;;5053390;28;20162;-88
2023/08/29 02:37:33;;;;;;;6.85;2.63;;;13.00;99.90;;;;;;5052199;28;20037;-88
2023/08/29 02:39:58;;;;;;;6.72;2.50;;;13.00;99.90;;;;;;5035658;28;20047;-88
2023/08/29 02:42:24;;;;;;;7.32;2.72;;;13.00;99.90;;;;;;5036541;28;20432;-88
2023/08/29 02:44:49;;;;;;;7.45;2.63;;;13.10;99.90;;;;;;5034231;28;20460;-88
2023/08/29 02:47:15;;;;;;;7.10;2.70;;;13.10;99.90;;;;;;5053198;28;20468;-87
2023/08/29 02:49:41;;;;;;;7.15;2.45;;;13.00;99.90;;;;;;5032336;28;20044;-87
2023/08/29 02:52:06;;;;;;;6.97;2.30;;;13.00;99.90;;;;;;5069611;28;20043;-88
2023/08/29 02:54:32;;;;;;;6.50;2.33;;;13.00;99.90;;;;;;5046584;28;20037;-87
2023/08/29 02:56:58;;;;;;;7.57;2.80;;;13.00;99.90;;;;;;5036200;28;20183;-87
2023/08/29 02:59:25;;;;;;;7.40;2.75;;;13.00;99.90;;;;;;5025832;28;20083;-88
2023/08/29 03:01:51;;;;;;;7.38;2.47;;;13.00;99.90;;;;;;5036048;28;20106;-88
2023/08/29 03:04:16;;;;;;;7.53;2.55;;;13.00;99.90;;;;;;5033045;28;20445;-88
2023/08/29 03:06:42;;;;;;;7.50;2.75;;;13.00;99.90;;;;;;5047838;28;20049;-88
2023/08/29 03:09:08;;;;;;;6.72;2.50;;;13.00;99.90;;;;;;5043968;28;20040;-88
2023/08/29 03:11:33;;;;;;;6.75;2.70;;;13.00;99.90;;;;;;5032714;28;20047;-88
2023/08/29 03:13:59;;;;;;;7.63;2.50;;;13.00;99.90;;;;;;5042730;28;20068;-88
2023/08/29 03:16:25;;;;;;;6.60;2.42;;;13.00;99.90;;;;;;5035538;28;20032;-88
2023/08/29 03:18:51;;;;;;;7.25;2.65;;;13.70;99.90;;;;;;5032476;28;20102;-88
2023/08/29 03:21:16;;;;;;;6.38;2.67;;;13.00;99.90;;;;;;5030265;28;20041;-88
2023/08/29 03:23:42;;;;;;;7.55;2.75;;;13.00;99.90;;;;;;5032415;28;20037;-88
2023/08/29 03:26:09;;;;;;;7.40;2.60;;;13.00;99.90;;;;;;5044416;28;20036;-88
2023/08/29 03:28:36;;;;;;;7.70;2.88;;;13.00;99.90;;;;;;5052492;28;20496;-87
2023/08/29 03:31:12;;;;;;;7.05;2.38;;;13.00;99.90;;;;;;5032649;28;20037;-87
2023/08/29 03:33:42;;;;;;;6.72;2.65;;;13.00;99.90;;;;;;5049025;28;20049;-88
2023/08/29 03:36:08;;;;;;;7.80;2.90;;;12.90;99.90;;;;;;5045660;28;20040;-87
2023/08/29 03:38:36;;;;;;;7.10;2.47;;;12.90;99.90;;;;;;5039652;28;20037;-88
2023/08/29 03:41:03;;;;;;;7.50;2.90;;;12.90;99.90;;;;;;5051755;28;20041;-88
2023/08/29 03:43:30;;;;;;;6.93;2.60;;;12.90;99.90;;;;;;5052094;28;20041;-88
2023/08/29 03:46:00;;;;;;;7.00;2.80;;;12.90;99.90;;;;;;5068844;28;20055;-87
2023/08/29 03:48:26;;;;;;;7.13;2.53;;;12.90;99.90;;;;;;5048908;28;20312;-88
2023/08/29 03:50:52;;;;;;;6.72;2.53;;;12.90;99.90;;;;;;5045420;28;20041;-87
2023/08/29 03:53:18;;;;;;;8.85;3.05;;;12.90;99.90;;;;;;5051728;28;20134;-88
2023/08/29 03:55:44;;;;;;;7.72;2.95;;;12.90;99.90;;;;;;5068841;28;20041;-88
2023/08/29 03:58:10;;;;;;;8.13;2.80;;;13.10;99.90;;;;;;5032754;28;20538;-88
2023/08/29 04:00:35;;;;;;;7.20;2.88;;;12.90;99.90;;;;;;5027787;28;20040;-88
2023/08/29 04:03:01;;;;;;;6.95;2.60;;;12.90;99.90;;;;;;5049941;28;20088;-88
2023/08/29 04:05:27;;;;;;;7.00;2.75;;;12.90;99.90;;;;;;5046668;28;20044;-88
2023/08/29 04:07:53;;;;;;;7.47;2.83;;;12.90;99.90;;;;;;5018227;28;20094;-88
2023/08/29 04:10:19;;;;;;;7.75;2.72;;;12.90;99.90;;;;;;5029714;28;20094;-88
2023/08/29 04:12:45;;;;;;;7.97;2.90;;;12.80;99.90;;;;;;5037386;28;20539;-88
2023/08/29 04:15:12;;;;;;;6.40;2.58;;;12.80;99.90;;;;;;5025350;28;20059;-87
2023/08/29 04:17:38;;;;;;;7.38;2.70;;;12.80;99.90;;;;;;5050978;28;20047;-88
2023/08/29 04:20:08;;;;;;;7.50;2.80;;;12.80;99.90;;;;;;5035060;28;20040;-88
2023/08/29 04:22:38;;;;;;;7.50;3.00;;;12.70;99.90;;;;;;5050931;28;20044;-87
2023/08/29 04:25:07;;;;;;;7.10;2.90;;;12.70;99.90;;;;;;5035043;28;20072;-88
2023/08/29 04:27:34;;;;;;;8.02;3.00;;;12.70;99.90;;;;;;5054274;28;20059;-87
2023/08/29 04:30:00;;;;;;;7.68;2.90;;;12.70;99.90;;;;;;5040722;28;20044;-88
2023/08/29 04:32:25;;;;;;;8.30;2.90;;;12.70;99.90;;;;;;5032733;28;20037;-88
2023/08/29 04:34:51;;;;;;;7.07;2.85;;;12.70;99.90;;;;;;5051777;28;20040;-88
2023/08/29 04:37:17;;;;;;;8.30;3.17;;;12.70;99.90;;;;;;5030599;28;20093;-88
2023/08/29 04:39:44;;;;;;;8.90;3.42;;;12.70;99.90;;;;;;5051395;28;20573;-88
2023/08/29 04:42:10;;;;;;;8.55;3.00;;;12.70;99.90;;;;;;5032075;28;20080;-88
2023/08/29 04:44:36;;;;;;;7.80;3.10;;;12.60;99.90;;;;;;5068107;28;20072;-87
2023/08/29 04:47:03;;;;;;;7.93;3.15;;;12.60;99.90;;;;;;5031786;28;20521;-87
2023/08/29 04:49:29;;;;;;;7.85;3.08;;;12.60;99.90;;;;;;5054881;28;20042;-87
2023/08/29 04:51:55;;;;;;;7.35;3.00;;;12.50;99.90;;;;;;5018599;28;20032;-88
2023/08/29 04:54:21;;;;;;;7.90;3.10;;;12.50;99.90;;;;;;5053614;28;20040;-87
2023/08/29 04:56:47;;;;;;;7.68;2.88;;;12.50;99.90;;;;;;5034604;28;20397;-87
2023/08/29 04:59:13;;;;;;;7.90;3.70;;;12.50;99.90;;;;;;5049409;28;20052;-87
2023/08/29 05:01:39;;;;;;;7.60;3.40;;;12.50;99.90;;;;;;5026993;28;20098;-87
2023/08/29 05:04:05;;;;;;;7.30;2.97;;;12.50;99.90;;;;;;5066372;28;20414;-87
2023/08/29 05:06:31;;;;;;;6.95;2.90;;;12.50;99.90;;;;;;5038166;28;20033;-88
2023/08/29 05:08:57;;;;;;;6.15;2.58;;;12.50;99.90;;;;;;5054568;28;20412;-88
2023/08/29 05:11:22;;;;;;;8.18;2.90;;;12.40;99.90;;;;;;5038538;28;20094;-88
2023/08/29 05:13:48;;;;;;;8.95;2.83;;;12.40;99.90;;;;;;5063781;28;20474;-87
2023/08/29 05:16:13;;;;;;;6.82;2.67;;;12.40;99.90;;;;;;5054724;28;20098;-87
2023/08/29 05:18:39;;;;;;;8.95;3.10;;;12.50;99.90;;;;;;5032351;28;20032;-87
2023/08/29 05:21:05;;;;;;;7.57;3.20;;;12.50;99.90;;;;;;5054666;28;20551;-87
2023/08/29 05:23:30;;;;;;;7.10;2.90;;;12.50;99.90;;;;;;5048048;28;20044;-87
2023/08/29 05:25:56;;;;;;;7.25;2.72;;;12.50;99.90;;;;;;5037832;28;20037;-87
2023/08/29 05:28:22;;;;;;;7.15;2.85;;;12.50;99.90;;;;;;5037792;28;20278;-87
2023/08/29 05:30:47;;;;;;;8.27;3.30;;;12.50;99.90;;;;;;5057114;28;20043;-88
2023/08/29 05:33:13;;;;;;;8.35;3.50;;;12.60;99.90;;;;;;5037579;28;20413;-87
2023/08/29 05:35:39;;;;;;;7.95;3.20;;;12.70;99.90;;;;;;5053093;28;20036;-87
2023/08/29 05:38:05;;;;;;;8.10;3.35;;;12.70;99.90;;;;;;5045175;28;20482;-87
2023/08/29 05:40:30;;;;;;;7.43;3.30;;;12.80;99.90;;;;;;5035062;28;20119;-87
2023/08/29 05:42:56;;;;;;;7.90;3.40;;;12.80;99.90;;;;;;5027451;28;20045;-87
2023/08/29 05:45:22;;;;;;;8.20;3.28;;;12.80;99.90;;;;;;5036730;28;20036;-88
2023/08/29 05:47:47;;;;;;;8.73;3.80;;;12.90;99.90;;;;;;5054167;28;20048;-88
2023/08/29 05:50:14;;;;;;;8.23;3.42;;;12.90;99.90;;;;;;5069103;28;20123;-88
2023/08/29 05:52:39;;;;;;;7.85;3.40;;;13.00;99.90;;;;;;5054205;28;20108;-88
2023/08/29 05:55:06;;;;;;;8.20;3.70;;;13.00;99.90;;;;;;5049126;28;20627;-88
2023/08/29 05:57:31;;;;;;;9.05;3.70;;;13.10;99.90;;;;;;5037002;28;20123;-89
2023/08/29 05:59:57;;;;;;;9.85;3.85;;;13.10;99.90;;;;;;5031311;28;20136;-88
2023/08/29 06:02:23;;;;;;;8.07;3.50;;;13.20;99.90;;;;;;5040632;28;20130;-88
2023/08/29 06:04:48;;;;;;;8.48;3.33;;;13.30;99.90;;;;;;5054105;28;20553;-89
2023/08/29 06:07:14;;;;;;;8.20;3.00;;;13.30;99.90;;;;;;5052575;28;20044;-88
2023/08/29 06:09:40;;;;;;;8.88;3.22;;;13.40;99.90;;;;;;5046018;28;20048;-88
2023/08/29 06:12:07;;;;;;;8.07;3.30;;;13.40;99.90;;;;;;5051467;28;20504;-88
2023/08/29 06:14:32;;;;;;;8.00;3.17;;;13.60;99.90;;;;;;5028954;28;20044;-87
2023/08/29 06:16:58;;;;;;;7.43;3.17;;;13.70;99.90;;;;;;5053630;28;20379;-88
2023/08/29 06:19:24;;;;;;;7.20;2.90;;;13.80;99.90;;;;;;5027517;28;20044;-88
2023/08/29 06:21:50;;;;;;;8.50;3.25;;;13.90;99.90;;;;;;5052813;28;20444;-87
2023/08/29 06:24:15;;;;;;;8.93;3.65;;;14.00;99.90;;;;;;5037055;28;20505;-87
2023/08/29 06:26:41;;;;;;;8.05;3.40;;;14.10;99.90;;;;;;5051428;28;20206;-87
2023/08/29 06:29:08;;;;;;;8.85;3.72;;;14.20;99.90;;;;;;5036964;28;20052;-87
2023/08/29 06:31:33;;;;;;;8.32;3.60;;;14.30;99.90;;;;;;5052180;28;20040;-87
2023/08/29 06:33:59;;;;;;;9.45;4.35;;;14.40;99.90;;;;;;5037086;28;20059;-87
2023/08/29 06:36:26;;;;;;;8.43;3.72;;;14.40;99.90;;;;;;5051203;28;20068;-87
2023/08/29 06:38:53;;;;;;;7.53;3.53;;;14.50;99.90;;;;;;5056955;28;20286;-87
2023/08/29 06:41:19;;;;;;;8.00;3.95;;;14.60;99.90;;;;;;5037048;28;20047;-87
2023/08/29 06:43:46;;;;;;;9.00;4.13;;;14.70;99.90;;;;;;5037254;28;20037;-87
2023/08/29 06:46:13;;;;;;;9.48;3.78;;;14.80;99.90;;;;;;5046419;28;20029;-87
2023/08/29 06:48:40;;;;;;;8.57;3.90;;;15.00;99.90;;;;;;5036576;28;20496;-87
2023/08/29 06:51:07;;;;;;;8.50;3.67;;;15.10;99.90;;;;;;5056561;28;20040;-87
2023/08/29 06:53:33;;;;;;;7.60;3.47;;;15.20;99.90;;;;;;5056896;28;20111;-86
2023/08/29 06:55:58;;;;;;;9.00;3.10;;;15.30;99.90;;;;;;5039889;28;20847;-88
2023/08/29 06:58:25;;;;;;;7.85;3.20;;;15.50;99.90;;;;;;5053022;28;20110;-88
2023/08/29 07:00:53;;;;;;;8.23;2.88;;;15.60;99.90;;;;;;5027983;28;20113;-86
2023/08/29 07:03:20;;;;;;;8.35;2.90;;;15.70;99.90;;;;;;5034173;28;20398;-86
2023/08/29 07:05:45;;;;;;;8.95;3.13;;;15.80;99.90;;;;;;5034879;28;20116;-86
2023/08/29 07:08:11;;;;;;;7.10;2.72;;;16.00;99.90;;;;;;5036319;28;20525;-87
2023/08/29 07:10:37;;;;;;;6.65;2.50;;;16.10;99.90;;;;;;5042738;28;20067;-87
2023/08/29 07:13:04;;;;;;;8.07;2.50;;;16.30;99.90;;;;;;5051282;28;20223;-87
2023/08/29 07:15:30;;;;;;;6.03;2.20;;;16.40;99.90;;;;;;5056292;28;20612;-86
2023/08/29 07:17:56;;;;;;;5.90;2.10;;;16.50;99.90;;;;;;5055863;28;20036;-87
2023/08/29 07:20:22;;;;;;;3.90;1.60;;;16.70;99.90;;;;;;5036502;28;20042;-86
2023/08/29 07:22:48;;;;;;;4.65;1.52;;;16.80;99.90;;;;;;5031547;28;20151;-86
2023/08/29 07:25:15;;;;;;;4.07;1.40;;;16.90;99.90;;;;;;5038945;28;20489;-86
2023/08/29 07:27:41;;;;;;;2.47;1.30;;;17.00;99.90;;;;;;5046186;28;20116;-87
2023/08/29 07:30:07;;;;;;;4.18;1.42;;;17.00;99.90;;;;;;5025784;28;20070;-87
2023/08/29 07:32:34;;;;;;;2.47;1.35;;;17.10;99.90;;;;;;5052095;28;20500;-86
2023/08/29 07:34:59;;;;;;;4.20;1.50;;;17.10;99.90;;;;;;5052358;28;20044;-87
2023/08/29 07:37:25;;;;;;;4.32;1.40;;;17.20;99.90;;;;;;5027691;28;20060;-86
2023/08/29 07:39:51;;;;;;;2.72;1.27;;;17.30;99.90;;;;;;5054230;28;20040;-87
2023/08/29 07:42:16;;;;;;;2.40;1.10;;;17.30;99.90;;;;;;5035820;28;20044;-87
2023/08/29 07:44:43;;;;;;;3.03;1.20;;;17.30;99.90;;;;;;5033446;28;20037;-87
2023/08/29 07:47:09;;;;;;;2.60;1.00;;;17.30;99.90;;;;;;5046083;28;20047;-86
2023/08/29 07:49:35;;;;;;;3.80;1.60;;;17.30;99.90;;;;;;5055905;28;20139;-86
2023/08/29 07:52:02;;;;;;;4.32;1.48;;;17.30;99.90;;;;;;5035377;28;20028;-87
2023/08/29 07:54:28;;;;;;;3.78;1.50;;;17.40;99.90;;;;;;5068387;28;20119;-86
2023/08/29 07:56:54;;;;;;;5.00;1.80;;;17.40;99.90;;;;;;5035580;28;20115;-86
2023/08/29 07:59:20;;;;;;;4.18;1.52;;;17.40;99.90;;;;;;5049611;28;20061;-86
2023/08/29 08:01:48;;;;;;;3.17;1.33;;;;;;;;;;5052036;28;20044;-86
2023/08/29 08:04:13;;;;;;;3.15;1.30;;;17.50;99.90;;;;;;5032013;28;20044;-86
2023/08/29 08:06:39;;;;;;;3.78;1.40;;;17.60;99.90;;;;;;5035520;28;20044;-87
2023/08/29 08:09:06;;;;;;;3.42;1.50;;;17.60;99.90;;;;;;5030532;28;20067;-86
2023/08/29 08:11:31;;;;;;;3.13;1.40;;;17.60;99.90;;;;;;5035178;28;20040;-87
2023/08/29 08:13:58;;;;;;;4.03;1.50;;;17.70;99.90;;;;;;5062181;28;20043;-86
2023/08/29 08:16:24;;;;;;;3.40;1.20;;;17.70;99.90;;;;;;5041563;28;20032;-86
2023/08/29 08:18:50;;;;;;;2.58;1.20;;;17.80;99.90;;;;;;5038858;28;20639;-86
2023/08/29 08:21:15;;;;;;;2.42;1.30;;;17.80;99.90;;;;;;5019545;28;20408;-86
2023/08/29 08:23:41;;;;;;;4.50;1.40;;;17.80;99.90;;;;;;5027024;28;20202;-86
2023/08/29 08:26:07;;;;;;;4.30;1.40;;;17.90;99.90;;;;;;5044264;28;20044;-86
2023/08/29 08:28:32;;;;;;;3.22;1.10;;;17.90;99.90;;;;;;5035030;28;20492;-86
2023/08/29 08:30:58;;;;;;;2.65;1.20;;;18.00;99.90;;;;;;5052295;28;20190;-86
2023/08/29 08:33:26;;;;;;;3.72;1.30;;;18.10;99.90;;;;;;5038099;28;20035;-86
2023/08/29 08:35:52;;;;;;;2.50;1.13;;;18.10;99.90;;;;;;5038486;28;20392;-86
2023/08/29 08:38:18;;;;;;;2.53;1.27;;;18.20;99.90;;;;;;5034861;28;20043;-86
2023/08/29 08:40:43;;;;;;;3.03;1.10;;;18.30;99.90;;;;;;5033272;28;20063;-86
2023/08/29 08:43:10;;;;;;;4.28;1.20;;;18.50;99.90;;;;;;5034686;28;20076;-86
2023/08/29 08:45:39;;;;;;;2.10;1.00;;;18.50;99.90;;;;;;5031556;28;20040;-86
2023/08/29 08:48:05;;;;;;;3.17;1.02;;;18.60;99.90;;;;;;5054422;28;20047;-86
2023/08/29 08:50:31;;;;;;;4.72;1.30;;;18.70;99.90;;;;;;5036086;28;20456;-86
2023/08/29 08:52:59;;;;;;;3.33;1.20;;;18.80;99.90;;;;;;5034370;28;20074;-86
2023/08/29 08:55:26;;;;;;;2.72;1.05;;;19.00;99.90;;;;;;5065869;28;20036;-86
2023/08/29 08:57:52;;;;;;;2.58;1.20;;;19.10;99.90;;;;;;5055035;28;20398;-86
2023/08/29 09:00:19;;;;;;;3.28;1.23;;;19.20;99.90;;;;;;5051325;28;20056;-86
2023/08/29 09:02:46;;;;;;;2.78;1.10;;;19.30;99.90;;;;;;5070952;28;20048;-86
2023/08/29 09:05:11;;;;;;;3.28;1.10;;;19.60;99.90;;;;;;5067938;28;20044;-86
2023/08/29 09:07:39;;;;;;;3.53;1.08;;;19.20;99.90;;;;;;5054299;28;20047;-86
2023/08/29 09:10:09;;;;;;;3.70;1.10;;;19.30;99.90;;;;;;5051120;28;20105;-86
2023/08/29 09:12:44;;;;;;;3.22;0.98;;;19.20;99.90;;;;;;5070630;28;20032;-86
2023/08/29 09:15:10;;;;;;;2.55;1.10;;;19.10;99.90;;;;;;5068097;28;20116;-86
2023/08/29 09:17:35;;;;;;;3.20;1.25;;;19.00;99.90;;;;;;5034261;28;20108;-86
2023/08/29 09:20:06;;;;;;;3.13;1.20;;;18.90;99.90;;;;;;5047738;28;20048;-86
2023/08/29 09:22:33;;;;;;;2.65;1.05;;;18.80;99.90;;;;;;5067492;28;20041;-86
2023/08/29 09:25:03;;;;;;;2.47;1.20;;;18.80;99.90;;;;;;5048135;28;20317;-86
2023/08/29 09:27:29;;;;;;;2.95;1.05;;;18.80;99.90;;;;;;5050456;28;20131;-87
2023/08/29 09:30:10;;;;;;;2.42;1.15;;;18.70;99.90;;;;;;5027410;28;20139;-86
2023/08/29 09:32:36;;;;;;;3.40;1.20;;;18.80;99.90;;;;;;5041938;28;20036;-87
2023/08/29 09:35:05;;;;;;;3.78;1.35;;;18.80;99.90;;;;;;5071469;28;20094;-86
2023/08/29 09:37:33;;;;;;;3.55;1.33;;;18.70;99.90;;;;;;5034587;28;20041;-86
2023/08/29 09:40:02;;;;;;;3.53;1.27;;;18.70;99.90;;;;;;5045062;28;20045;-87
2023/08/29 09:42:29;;;;;;;2.30;1.00;;;18.70;99.90;;;;;;5041423;28;20040;-87
2023/08/29 09:44:54;;;;;;;2.05;1.05;;;18.70;99.90;;;;;;5051624;28;20503;-86
2023/08/29 09:47:24;;;;;;;0.85;0.70;;;18.80;99.90;;;;;;5035270;28;20136;-86
2023/08/29 09:49:50;;;;;;;2.22;0.90;;;19.00;99.90;;;;;;5067847;28;20151;-86
2023/08/29 09:52:16;;;;;;;2.75;1.00;;;19.10;99.90;;;;;;5021035;28;20097;-86
2023/08/29 09:54:50;;;;;;;2.30;1.00;;;19.10;99.90;;;;;;5050410;28;20124;-86
2023/08/29 09:57:19;;;;;;;0.60;0.60;;;19.10;99.90;;;;;;5044382;28;20181;-86
2023/08/29 09:59:46;;;;;;;2.85;1.10;;;19.20;99.90;;;;;;5037777;28;20424;-86
2023/08/29 10:02:14;;;;;;;1.45;0.88;;;19.20;99.90;;;;;;5036810;28;20488;-86
2023/08/29 10:04:45;;;;;;;1.90;0.80;;;19.50;99.90;;;;;;5047099;28;20045;-86
2023/08/29 10:07:25;;;;;;;3.25;1.20;;;19.70;99.90;;;;;;5060379;28;20043;-87
2023/08/29 10:09:52;;;;;;;1.48;0.88;;;19.90;99.90;;;;;;5073937;28;20044;-86
2023/08/29 10:12:18;;;;;;;3.00;1.20;;;19.90;99.90;;;;;;5053751;28;20501;-87
2023/08/29 10:14:45;;;;;;;1.90;1.15;;;19.90;99.90;;;;;;5049064;28;20044;-87
2023/08/29 10:17:12;;;;;;;2.17;1.13;;;20.00;99.90;;;;;;5053908;28;20052;-87
2023/08/29 10:19:39;;;;;;;3.55;1.40;;;20.00;99.90;;;;;;5048509;28;20047;-86
2023/08/29 10:22:08;;;;;;;2.25;1.15;;;20.10;99.90;;;;;;5056910;28;20406;-86
2023/08/29 10:24:37;;;;;;;1.35;0.98;;;20.00;99.90;;;;;;5041122;28;20514;-86
2023/08/29 10:27:03;;;;;;;1.98;1.00;;;19.90;99.90;;;;;;5032182;28;20064;-86
2023/08/29 10:29:32;;;;;;;2.65;0.93;;;19.80;99.90;;;;;;5030689;28;20050;-87
2023/08/29 10:32:00;;;;;;;2.72;1.25;;;20.10;99.90;;;;;;5047770;28;20046;-86
2023/08/29 10:34:32;;;;;;;2.90;1.30;;;20.10;99.90;;;;;;5056570;28;20066;-86
2023/08/29 10:36:59;;;;;;;2.45;1.05;;;20.40;99.90;;;;;;5023992;28;20064;-87
2023/08/29 10:39:26;;;;;;;4.07;1.40;;;20.40;99.90;;;;;;5031024;28;20453;-87
2023/08/29 10:41:56;;;;;;;3.20;1.35;;;20.50;99.90;;;;;;5043512;28;20044;-87
2023/08/29 10:44:35;;;;;;;3.13;1.30;;;20.60;99.90;;;;;;5036909;28;20081;-86
2023/08/29 10:47:34;;;;;;;3.15;1.33;;;20.60;99.90;;;;;;5053298;28;20075;-86
2023/08/29 10:50:03;;;;;;;3.85;1.40;;;20.90;99.90;;;;;;5055839;28;20203;-86
2023/08/29 10:52:42;;;;;;;5.55;1.50;;;20.90;99.90;;;;;;5056479;28;20063;-86
2023/08/29 10:55:27;;;;;;;3.97;1.60;;;20.90;99.90;;;;;;5020171;28;20036;-86
2023/08/29 10:57:58;;;;;;;4.40;1.30;;;21.00;99.90;;;;;;5034880;28;20040;-86
2023/08/29 11:00:42;;;;;;;5.25;1.50;;;20.90;99.90;;;;;;5032222;28;20119;-86
2023/08/29 11:03:08;;;;;;;3.35;1.40;;;20.80;99.90;;;;;;5051119;28;20063;-86
2023/08/29 11:05:40;;;;;;;4.97;1.63;;;20.80;99.90;;;;;;5053189;28;20090;-87
2023/08/29 11:08:22;;;;;;;4.15;1.50;;;20.90;99.90;;;;;;5053177;28;20037;-87
2023/08/29 11:11:12;;;;;;;3.83;1.50;;;21.00;99.90;;;;;;5053065;28;20072;-87
2023/08/29 11:14:16;;;;;;;3.95;1.58;;;21.20;99.90;;;;;;5053029;28;20515;-87
2023/08/29 11:17:22;;;;;;;3.63;1.50;;;21.50;99.90;;;;;;5047698;28;20490;-87
2023/08/29 11:19:54;;;;;;;3.67;1.60;;;21.50;99.90;;;;;;5014987;28;20041;-87
2023/08/29 11:22:31;;;;;;;4.60;1.60;;;21.60;99.90;;;;;;5037353;28;20061;-86
2023/08/29 11:24:58;;;;;;;4.15;1.60;;;21.60;99.90;;;;;;5024665;28;20131;-87
2023/08/29 11:27:25;;;;;;;4.40;1.63;;;21.70;99.90;;;;;;5035793;28;20040;-87
2023/08/29 11:29:52;;;;;;;4.38;1.63;;;21.90;99.90;;;;;;5019512;28;20490;-87
2023/08/29 11:32:21;;;;;;;3.70;1.42;;;21.90;99.90;;;;;;5045649;28;20398;-87
2023/08/29 11:34:54;;;;;;;4.32;1.40;;;21.90;99.90;;;;;;5032952;28;20455;-86
2023/08/29 11:37:21;;;;;;;;;;;21.60;99.90;;;;;;5046458;28;20207;-87
2023/08/29 11:39:55;;;;;;;10.30;1.50;;;21.30;99.90;;;;;;5039143;28;19916;-87
2023/08/29 11:42:21;;;;;;;3.42;1.33;;;21.00;99.90;;;;;;5068518;28;20093;-87
2023/08/29 11:44:49;;;;;;;3.33;1.25;;;20.90;99.90;;;;;;5032645;28;20040;-87
2023/08/29 11:47:17;;;;;;;3.55;1.30;;;20.80;99.90;;;;;;5062292;28;20068;-87
2023/08/29 11:49:50;;;;;;;5.22;1.60;;;20.70;99.90;;;;;;5052518;28;20044;-87
2023/08/29 11:52:16;;;;;;;;;;;20.60;99.90;;;;;;5052709;28;20378;-87
2023/08/29 11:54:47;;;;;;;4.03;1.52;;;20.70;99.90;;;;;;5052376;28;20373;-86
2023/08/29 11:57:14;;;;;;;5.40;1.60;;;20.80;99.90;;;;;;5051705;28;20040;-86
2023/08/29 11:59:44;;;;;;;4.03;1.50;;;20.80;99.90;;;;;;5019449;28;20060;-87
2023/08/29 12:02:17;;;;;;;4.10;1.60;;;20.90;99.90;;;;;;5045943;28;20044;-87
2023/08/29 12:04:44;;;;;;;5.20;2.20;;;21.00;99.90;;;;;;5052516;28;20036;-87
2023/08/29 12:07:11;;;;;;;3.20;1.48;;;21.00;99.90;;;;;;5051573;28;20497;-87
2023/08/29 12:09:39;;;;;;;4.28;1.63;;;21.10;99.90;;;;;;5031918;28;20041;-86
2023/08/29 12:12:08;;;;;;;4.05;1.58;;;21.10;99.90;;;;;;5045874;28;20041;-87
2023/08/29 12:14:53;;;;;;;4.40;1.60;;;21.10;99.90;;;;;;5068569;28;20044;-87
2023/08/29 12:17:19;;;;;;;4.80;1.75;;;21.00;99.90;;;;;;5068077;28;20158;-87
2023/08/29 12:19:46;;;;;;;5.28;1.75;;;21.00;99.90;;;;;;5051775;28;20070;-87
2023/08/29 12:22:12;;;;;;;4.13;1.60;;;21.10;99.90;;;;;;5045848;28;20120;-87
2023/08/29 12:24:39;;;;;;;5.45;1.90;;;21.20;99.90;;;;;;5032062;28;20132;-87
2023/08/29 12:27:06;;;;;;;4.65;1.52;;;21.30;99.90;;;;;;5047284;28;20047;-87
2023/08/29 12:29:32;;;;;;;5.78;2.03;;;21.40;99.90;;;;;;5051939;28;20051;-87
2023/08/29 12:31:58;;;;;;;4.82;1.75;;;21.40;99.90;;;;;;5032276;28;20424;-87
2023/08/29 12:34:24;;;;;;;4.95;1.65;;;21.40;99.90;;;;;;5052002;28;20040;-87
2023/08/29 12:36:49;;;;;;;5.10;1.98;;;21.40;99.90;;;;;;5015123;28;20063;-87
2023/08/29 12:39:15;;;;;;;4.93;2.08;;;21.30;99.90;;;;;;5047474;28;20184;-87
2023/08/29 12:41:41;;;;;;;4.78;1.85;;;21.80;99.90;;;;;;5040152;28;20041;-88
2023/08/29 12:44:07;;;;;;;4.45;1.70;;;21.30;99.90;;;;;;5066829;28;20067;-87
2023/08/29 12:46:34;;;;;;;4.38;1.65;;;21.30;99.90;;;;;;5014950;28;20029;-87
2023/08/29 12:49:02;;;;;;;4.90;1.70;;;21.40;99.90;;;;;;5049505;28;20072;-86